createdAt,value
2019-02-06T00:04:32.370Z,58.57
2019-02-06T00:09:37.776Z,54.13
2019-02-06T00:14:43.117Z,62.10
2019-02-06T00:19:48.991Z,62.45
2019-02-06T00:24:55.723Z,55.93
2019-02-06T00:30:01.529Z,54.63
2019-02-06T00:35:07.053Z,54.88
2019-02-06T00:40:12.329Z,53.78
2019-02-06T00:45:17.589Z,50.00
2019-02-06T00:50:22.870Z,47.90
2019-02-06T00:55:28.213Z,55.03
2019-02-06T01:00:33.547Z,45.70
2019-02-06T01:05:39.025Z,49.10
2019-02-06T01:10:44.311Z,45.63
2019-02-06T01:15:49.589Z,50.58
2019-02-06T01:20:54.846Z,47.70
2019-02-06T01:26:00.205Z,48.67
2019-02-06T01:31:07.210Z,52.20
2019-02-06T01:36:12.571Z,44.70
2019-02-06T01:41:18.230Z,46.70
2019-02-06T01:46:23.667Z,42.83
2019-02-06T01:51:28.976Z,45.52
2019-02-06T01:56:34.290Z,43.53
2019-02-06T02:01:39.643Z,40.48
2019-02-06T02:06:45.159Z,38.83
2019-02-06T02:11:50.412Z,42.67
2019-02-06T02:16:55.672Z,47.40
2019-02-06T02:22:00.939Z,42.43
2019-02-06T02:27:06.243Z,44.50
2019-02-06T02:32:11.559Z,38.50
2019-02-06T02:37:16.917Z,39.85
2019-02-06T02:42:22.368Z,42.17
2019-02-06T02:47:27.618Z,39.40
2019-02-06T02:52:32.906Z,36.03
2019-02-06T02:57:38.321Z,44.85
2019-02-06T03:02:57.300Z,40.57
2019-02-06T03:08:02.729Z,46.28
2019-02-06T03:13:07.980Z,36.98
2019-02-06T03:18:13.277Z,48.10
2019-02-06T03:23:18.677Z,44.37
2019-02-06T03:28:24.219Z,37.15
2019-02-06T03:33:29.483Z,44.05
2019-02-06T03:38:34.762Z,40.15
2019-02-06T03:43:40.024Z,38.33
2019-02-06T03:48:45.286Z,35.17
2019-02-06T03:53:50.527Z,47.57
2019-02-06T03:58:55.775Z,48.10
2019-02-06T04:04:01.229Z,44.77
2019-02-06T04:09:07.584Z,40.97
2019-02-06T04:14:12.842Z,51.68
2019-02-06T04:19:18.100Z,39.53
2019-02-06T04:24:23.334Z,45.63
2019-02-06T04:29:28.574Z,44.87
2019-02-06T04:34:33.983Z,38.15
2019-02-06T04:39:39.654Z,31.97
2019-02-06T04:44:44.899Z,28.90
2019-02-06T04:49:50.221Z,40.90
2019-02-06T04:54:55.480Z,30.43
2019-02-06T05:00:00.825Z,40.20
2019-02-06T05:05:07.265Z,40.00
2019-02-06T05:10:13.878Z,38.03
2019-02-06T05:15:19.126Z,40.93
2019-02-06T05:20:30.790Z,37.23
2019-02-06T05:25:36.100Z,36.03
2019-02-06T05:30:41.443Z,41.20
2019-02-06T05:35:46.710Z,44.70
2019-02-06T05:40:51.982Z,50.38
2019-02-06T05:45:57.264Z,44.08
2019-02-06T05:51:02.530Z,46.92
2019-02-06T05:56:07.852Z,44.33
2019-02-06T06:01:14.455Z,40.57
2019-02-06T06:06:19.766Z,43.80
2019-02-06T06:11:25.024Z,41.63
2019-02-06T06:16:30.809Z,43.33
2019-02-06T06:21:36.048Z,47.30
2019-02-06T06:26:41.334Z,45.23
2019-02-06T06:31:46.589Z,47.70
2019-02-06T06:36:51.844Z,46.35
2019-02-06T06:41:57.307Z,48.43
2019-02-06T06:47:02.579Z,43.30
2019-02-06T06:52:07.816Z,41.47
2019-02-06T06:57:13.128Z,46.27
2019-02-06T07:02:18.401Z,52.93
2019-02-06T07:07:23.655Z,42.17
2019-02-06T07:12:28.913Z,43.00
2019-02-06T07:17:34.491Z,61.73
2019-02-06T07:22:39.743Z,47.70
2019-02-06T07:27:45.001Z,57.33
2019-02-06T07:32:50.279Z,40.63
2019-02-06T07:37:55.545Z,48.35
2019-02-06T07:43:00.807Z,46.33
2019-02-06T07:48:06.080Z,43.78
2019-02-06T07:53:11.410Z,59.70
2019-02-06T07:58:17.619Z,41.68
2019-02-06T08:03:22.861Z,38.92
2019-02-06T08:08:36.095Z,46.67
2019-02-06T08:13:36.074Z,40.10
2019-02-06T08:18:41.382Z,37.90
2019-02-06T08:23:46.637Z,39.67
2019-02-06T08:28:51.891Z,44.63
2019-02-06T08:33:57.156Z,38.57
2019-02-06T08:39:02.447Z,47.30
2019-02-06T08:44:08.046Z,49.65
2019-02-06T08:49:13.314Z,53.02
2019-02-06T08:54:20.354Z,45.67
2019-02-06T08:59:25.476Z,39.88
2019-02-06T09:04:30.750Z,47.00
2019-02-06T09:09:36.027Z,44.25
2019-02-06T09:14:41.262Z,36.25
2019-02-06T09:19:46.509Z,44.70
2019-02-06T09:24:51.780Z,38.10
2019-02-06T09:29:57.442Z,41.80
2019-02-06T09:35:02.718Z,42.15
2019-02-06T09:40:11.129Z,45.08
2019-02-06T09:45:16.464Z,55.70
2019-02-06T09:50:24.429Z,150.83
2019-02-06T09:55:29.712Z,99.50
2019-02-06T10:00:36.635Z,121.02
2019-02-06T10:05:42.193Z,80.97
2019-02-06T10:10:47.478Z,36.48
2019-02-06T10:15:52.752Z,43.42
2019-02-06T10:20:58.219Z,37.98
2019-02-06T10:26:03.482Z,47.10
2019-02-06T10:31:08.816Z,36.77
2019-02-06T10:36:14.102Z,53.98
2019-02-06T10:41:19.641Z,38.10
2019-02-06T10:46:26.316Z,46.20
2019-02-06T10:51:31.607Z,39.23
2019-02-06T10:56:36.879Z,40.73
2019-02-06T11:01:42.150Z,43.85
2019-02-06T11:06:47.474Z,35.92
2019-02-06T11:11:52.809Z,43.52
2019-02-06T11:16:58.095Z,45.20
2019-02-06T11:22:06.510Z,44.42
2019-02-06T11:27:15.380Z,49.45
2019-02-06T11:32:20.647Z,40.15
2019-02-06T11:37:25.898Z,40.80
2019-02-06T11:42:31.390Z,39.63
2019-02-06T11:47:36.684Z,38.25
2019-02-06T11:52:42.248Z,36.90
2019-02-06T11:57:47.525Z,37.83
2019-02-06T12:02:52.946Z,34.38
2019-02-06T12:07:58.229Z,42.48
2019-02-06T12:13:03.822Z,31.70
2019-02-06T12:18:09.058Z,33.55
2019-02-06T12:23:14.343Z,27.87
2019-02-06T12:28:19.737Z,35.15
2019-02-06T12:33:25.724Z,29.87
2019-02-06T12:38:30.983Z,30.10
2019-02-06T12:43:36.254Z,46.80
2019-02-06T12:48:41.564Z,25.60
2019-02-06T12:53:46.806Z,32.35
2019-02-06T12:58:52.110Z,24.00
2019-02-06T13:03:57.457Z,25.17
2019-02-06T13:09:03.866Z,26.70
2019-02-06T13:14:11.811Z,33.53
2019-02-06T13:19:17.564Z,26.77
2019-02-06T13:24:22.931Z,24.12
2019-02-06T13:29:28.209Z,32.88
2019-02-06T13:34:33.624Z,24.85
2019-02-06T13:39:39.048Z,28.42
2019-02-06T13:44:45.721Z,25.43
2019-02-06T13:49:54.052Z,25.40
2019-02-06T13:55:00.983Z,24.72
2019-02-06T14:00:15.054Z,27.65
2019-02-06T14:05:23.302Z,31.30
2019-02-06T14:10:32.195Z,25.27
2019-02-06T14:15:42.783Z,24.30
2019-02-06T14:20:49.569Z,23.10
2019-02-06T14:26:19.023Z,18.52
2019-02-06T14:31:27.622Z,23.12
2019-02-06T14:36:42.451Z,20.50
2019-02-06T14:41:54.914Z,20.97
2019-02-06T14:47:03.548Z,20.75
2019-02-06T14:52:29.683Z,23.25
2019-02-06T14:58:05.467Z,68.78
2019-02-06T15:03:25.483Z,61.53
2019-02-06T15:08:53.302Z,25.62
2019-02-06T15:14:36.826Z,50.63
2019-02-06T15:19:57.212Z,34.45
2019-02-06T15:25:11.413Z,29.55
2019-02-06T15:30:34.800Z,23.20
2019-02-06T15:35:46.006Z,22.55
2019-02-06T15:40:57.352Z,22.85
2019-02-06T15:46:34.397Z,18.90
2019-02-06T15:52:04.899Z,17.45
2019-02-06T15:57:46.171Z,18.00
2019-02-06T16:02:57.404Z,25.07
2019-02-06T16:08:08.843Z,22.35
2019-02-06T16:13:34.447Z,20.25
2019-02-06T16:18:45.736Z,30.43
2019-02-06T16:24:00.044Z,29.97
2019-02-06T16:29:08.596Z,24.12
2019-02-06T16:34:36.711Z,25.43
2019-02-06T16:39:51.058Z,29.45
2019-02-06T16:45:02.416Z,28.02
2019-02-06T16:50:20.238Z,39.78
2019-02-06T16:56:05.563Z,34.03
2019-02-06T17:01:14.095Z,40.07
2019-02-06T17:06:31.673Z,54.13
2019-02-06T17:11:49.135Z,58.67
2019-02-06T17:17:12.875Z,65.22
2019-02-06T17:22:36.222Z,80.73
2019-02-06T17:28:07.331Z,88.70
2019-02-06T17:33:32.547Z,85.27
2019-02-06T17:39:00.652Z,98.17
2019-02-06T17:44:14.717Z,99.83
2019-02-06T17:49:26.004Z,108.37
2019-02-06T17:54:52.638Z,112.23
2019-02-06T17:59:58.219Z,116.90
2019-02-06T18:05:03.786Z,129.32
2019-02-06T18:10:15.026Z,115.80
2019-02-06T18:15:20.394Z,106.12
2019-02-06T18:20:25.751Z,105.40
2019-02-06T18:25:31.011Z,91.43
2019-02-06T18:30:36.255Z,95.57
2019-02-06T18:35:41.566Z,94.67
2019-02-06T18:40:47.805Z,91.87
2019-02-06T18:45:53.116Z,101.77
2019-02-06T18:50:58.417Z,117.17
2019-02-06T18:56:03.719Z,243.67
2019-02-06T19:01:09.017Z,175.50
2019-02-06T19:06:14.269Z,148.97
2019-02-06T19:11:19.551Z,144.13
2019-02-06T19:16:24.866Z,136.13
2019-02-06T19:21:30.459Z,105.47
2019-02-06T19:26:37.366Z,90.03
2019-02-06T19:31:42.649Z,75.80
2019-02-06T19:36:49.281Z,50.73
2019-02-06T19:41:54.656Z,49.70
2019-02-06T19:46:59.919Z,48.73
2019-02-06T19:52:05.185Z,72.30
2019-02-06T19:57:10.453Z,79.73
2019-02-06T20:02:15.935Z,61.23
2019-02-06T20:07:21.203Z,58.20
2019-02-06T20:12:26.469Z,67.47
2019-02-06T20:17:31.952Z,50.93
2019-02-06T20:22:37.237Z,60.00
2019-02-06T20:27:42.631Z,50.80
2019-02-06T20:32:47.900Z,59.27
2019-02-06T20:37:53.760Z,55.97
2019-02-06T20:42:59.036Z,69.10
2019-02-06T20:48:04.298Z,74.33
2019-02-06T20:53:09.606Z,80.03
2019-02-06T20:58:14.889Z,75.37
2019-02-06T21:03:20.151Z,76.43
2019-02-06T21:08:25.435Z,83.23
2019-02-06T21:13:33.211Z,86.73
2019-02-06T21:18:37.933Z,68.33
2019-02-06T21:23:43.312Z,60.70
2019-02-06T21:28:48.623Z,66.80
2019-02-06T21:33:53.912Z,69.20
2019-02-06T21:38:59.274Z,70.20
2019-02-06T21:44:08.998Z,71.63
2019-02-06T21:49:14.256Z,79.43
2019-02-06T21:54:19.524Z,79.67
2019-02-06T21:59:24.765Z,74.30
2019-02-06T22:04:30.100Z,70.30
2019-02-06T22:09:35.511Z,69.67
2019-02-06T22:14:40.794Z,73.83
2019-02-06T22:19:46.049Z,84.10
2019-02-06T22:24:51.389Z,80.60
2019-02-06T22:29:57.053Z,64.27
2019-02-06T22:35:02.311Z,57.13
2019-02-06T22:40:11.012Z,65.97
2019-02-06T22:45:24.617Z,68.33
2019-02-06T22:50:29.915Z,61.80
2019-02-06T22:55:35.175Z,80.50
2019-02-06T23:00:51.389Z,76.67
2019-02-06T23:05:57.002Z,69.27
2019-02-06T23:11:02.310Z,76.23
2019-02-06T23:16:07.586Z,79.87
2019-02-06T23:21:12.858Z,67.10
2019-02-06T23:26:18.189Z,74.50
2019-02-06T23:31:23.456Z,68.97
2019-02-06T23:36:29.114Z,80.37
2019-02-06T23:41:34.389Z,68.77
2019-02-06T23:46:39.659Z,75.67
2019-02-06T23:51:44.960Z,76.63
2019-02-06T23:56:50.276Z,81.37
